sensor_id;sensor_type;location;lat;lon;timestamp;P1;durP1;ratioP1;P2;durP2;ratioP2
9188;SDS011;34313;50.780;6.084;2023-09-12T00:01:57;8.57;;;7.10;;
9188;SDS011;34313;50.780;6.084;2023-09-12T00:04:22;10.37;;;6.90;;
9188;SDS011;34313;50.780;6.084;2023-09-12T00:06:48;9.17;;;6.27;;
9188;SDS011;34313;50.780;6.084;2023-09-12T00:09:13;9.43;;;6.80;;
9188;SDS011;34313;50.780;6.084;2023-09-12T00:11:38;7.93;;;7.00;;
9188;SDS011;34313;50.780;6.084;2023-09-12T00:14:04;8.70;;;7.57;;
9188;SDS011;34313;50.780;6.084;2023-09-12T00:16:29;7.83;;;7.10;;
9188;SDS011;34313;50.780;6.084;2023-09-12T00:18:54;9.10;;;7.20;;
9188;SDS011;34313;50.780;6.084;2023-09-12T00:21:19;11.97;;;7.70;;
9188;SDS011;34313;50.780;6.084;2023-09-12T00:23:45;9.40;;;7.37;;
9188;SDS011;34313;50.780;6.084;2023-09-12T00:26:10;7.67;;;6.70;;
9188;SDS011;34313;50.780;6.084;2023-09-12T00:28:35;9.20;;;7.30;;
9188;SDS011;34313;50.780;6.084;2023-09-12T00:31:02;11.00;;;7.87;;
9188;SDS011;34313;50.780;6.084;2023-09-12T00:33:27;8.87;;;7.40;;
9188;SDS011;34313;50.780;6.084;2023-09-12T00:35:53;12.23;;;7.60;;
9188;SDS011;34313;50.780;6.084;2023-09-12T00:38:18;13.70;;;7.83;;
9188;SDS011;34313;50.780;6.084;2023-09-12T00:40:43;12.37;;;7.93;;
9188;SDS011;34313;50.780;6.084;2023-09-12T00:43:08;8.97;;;7.57;;
9188;SDS011;34313;50.780;6.084;2023-09-12T00:45:35;8.97;;;7.50;;
9188;SDS011;34313;50.780;6.084;2023-09-12T00:48:00;10.13;;;8.20;;
9188;SDS011;34313;50.780;6.084;2023-09-12T00:50:28;8.00;;;7.20;;
9188;SDS011;34313;50.780;6.084;2023-09-12T00:52:55;11.40;;;8.50;;
9188;SDS011;34313;50.780;6.084;2023-09-12T00:55:21;12.83;;;8.10;;
9188;SDS011;34313;50.780;6.084;2023-09-12T00:57:46;11.97;;;8.00;;
9188;SDS011;34313;50.780;6.084;2023-09-12T01:00:13;10.20;;;8.03;;
9188;SDS011;34313;50.780;6.084;2023-09-12T01:02:42;11.97;;;8.27;;
9188;SDS011;34313;50.780;6.084;2023-09-12T01:05:11;13.33;;;8.97;;
9188;SDS011;34313;50.780;6.084;2023-09-12T01:07:37;11.87;;;9.63;;
9188;SDS011;34313;50.780;6.084;2023-09-12T01:10:04;12.97;;;8.60;;
9188;SDS011;34313;50.780;6.084;2023-09-12T01:12:30;11.70;;;8.20;;
9188;SDS011;34313;50.780;6.084;2023-09-12T01:14:56;8.27;;;7.47;;
9188;SDS011;34313;50.780;6.084;2023-09-12T01:17:22;11.80;;;7.90;;
9188;SDS011;34313;50.780;6.084;2023-09-12T01:19:47;13.47;;;8.93;;
9188;SDS011;34313;50.780;6.084;2023-09-12T01:28:00;11.03;;;8.77;;
9188;SDS011;34313;50.780;6.084;2023-09-12T01:30:28;11.43;;;9.07;;
9188;SDS011;34313;50.780;6.084;2023-09-12T01:32:57;18.40;;;9.60;;
9188;SDS011;34313;50.780;6.084;2023-09-12T01:35:23;14.37;;;7.80;;
9188;SDS011;34313;50.780;6.084;2023-09-12T01:37:48;11.00;;;8.73;;
9188;SDS011;34313;50.780;6.084;2023-09-12T01:40:13;14.63;;;10.17;;
9188;SDS011;34313;50.780;6.084;2023-09-12T01:42:42;10.97;;;8.90;;
9188;SDS011;34313;50.780;6.084;2023-09-12T01:45:10;12.10;;;8.60;;
9188;SDS011;34313;50.780;6.084;2023-09-12T01:47:41;12.07;;;9.00;;
9188;SDS011;34313;50.780;6.084;2023-09-12T01:50:08;11.80;;;9.30;;
9188;SDS011;34313;50.780;6.084;2023-09-12T01:52:34;11.77;;;9.10;;
9188;SDS011;34313;50.780;6.084;2023-09-12T01:55:01;12.73;;;8.80;;
9188;SDS011;34313;50.780;6.084;2023-09-12T01:57:27;11.80;;;8.97;;
9188;SDS011;34313;50.780;6.084;2023-09-12T01:59:53;10.23;;;8.70;;
9188;SDS011;34313;50.780;6.084;2023-09-12T02:02:18;11.67;;;8.43;;
9188;SDS011;34313;50.780;6.084;2023-09-12T02:04:46;11.30;;;8.77;;
9188;SDS011;34313;50.780;6.084;2023-09-12T02:07:17;13.70;;;9.60;;
9188;SDS011;34313;50.780;6.084;2023-09-12T02:09:43;12.73;;;9.63;;
9188;SDS011;34313;50.780;6.084;2023-09-12T02:12:08;16.93;;;10.40;;
9188;SDS011;34313;50.780;6.084;2023-09-12T02:14:34;11.57;;;9.07;;
9188;SDS011;34313;50.780;6.084;2023-09-12T02:16:59;15.00;;;10.63;;
9188;SDS011;34313;50.780;6.084;2023-09-12T02:19:24;12.20;;;9.80;;
9188;SDS011;34313;50.780;6.084;2023-09-12T02:21:49;13.97;;;10.60;;
9188;SDS011;34313;50.780;6.084;2023-09-12T02:24:15;13.37;;;10.30;;
9188;SDS011;34313;50.780;6.084;2023-09-12T02:26:40;12.07;;;10.07;;
9188;SDS011;34313;50.780;6.084;2023-09-12T02:29:06;15.00;;;10.33;;
9188;SDS011;34313;50.780;6.084;2023-09-12T02:31:32;10.50;;;9.40;;
9188;SDS011;34313;50.780;6.084;2023-09-12T02:33:57;16.80;;;10.40;;
9188;SDS011;34313;50.780;6.084;2023-09-12T02:36:22;14.10;;;10.27;;
9188;SDS011;34313;50.780;6.084;2023-09-12T02:38:48;11.50;;;9.87;;
9188;SDS011;34313;50.780;6.084;2023-09-12T02:41:13;11.50;;;10.23;;
9188;SDS011;34313;50.780;6.084;2023-09-12T02:43:38;12.00;;;9.93;;
9188;SDS011;34313;50.780;6.084;2023-09-12T02:46:04;13.97;;;10.77;;
9188;SDS011;34313;50.780;6.084;2023-09-12T02:48:29;11.60;;;10.03;;
9188;SDS011;34313;50.780;6.084;2023-09-12T02:50:54;14.03;;;10.63;;
9188;SDS011;34313;50.780;6.084;2023-09-12T02:53:20;13.03;;;10.50;;
9188;SDS011;34313;50.780;6.084;2023-09-12T02:55:45;15.23;;;10.93;;
9188;SDS011;34313;50.780;6.084;2023-09-12T02:58:10;14.60;;;10.00;;
9188;SDS011;34313;50.780;6.084;2023-09-12T03:00:39;13.90;;;9.23;;
9188;SDS011;34313;50.780;6.084;2023-09-12T03:03:05;17.77;;;10.53;;
9188;SDS011;34313;50.780;6.084;2023-09-12T03:05:31;14.67;;;10.00;;
9188;SDS011;34313;50.780;6.084;2023-09-12T03:07:56;12.13;;;10.13;;
9188;SDS011;34313;50.780;6.084;2023-09-12T03:10:21;11.87;;;9.20;;
9188;SDS011;34313;50.780;6.084;2023-09-12T03:12:47;14.27;;;9.13;;
9188;SDS011;34313;50.780;6.084;2023-09-12T03:15:12;15.60;;;10.17;;
9188;SDS011;34313;50.780;6.084;2023-09-12T03:17:37;12.50;;;9.93;;
9188;SDS011;34313;50.780;6.084;2023-09-12T03:20:03;13.00;;;10.60;;
9188;SDS011;34313;50.780;6.084;2023-09-12T03:22:32;14.40;;;11.00;;
9188;SDS011;34313;50.780;6.084;2023-09-12T03:25:02;15.73;;;11.20;;
9188;SDS011;34313;50.780;6.084;2023-09-12T03:27:27;13.23;;;10.63;;
9188;SDS011;34313;50.780;6.084;2023-09-12T03:29:53;16.97;;;10.87;;
9188;SDS011;34313;50.780;6.084;2023-09-12T03:32:18;20.03;;;12.13;;
9188;SDS011;34313;50.780;6.084;2023-09-12T03:34:43;16.70;;;12.00;;
9188;SDS011;34313;50.780;6.084;2023-09-12T03:37:09;13.70;;;11.53;;
9188;SDS011;34313;50.780;6.084;2023-09-12T03:39:34;17.77;;;11.63;;
9188;SDS011;34313;50.780;6.084;2023-09-12T03:41:59;16.80;;;12.43;;
9188;SDS011;34313;50.780;6.084;2023-09-12T03:44:25;19.73;;;13.07;;
9188;SDS011;34313;50.780;6.084;2023-09-12T03:46:50;15.07;;;12.80;;
9188;SDS011;34313;50.780;6.084;2023-09-12T03:49:15;23.07;;;13.77;;
9188;SDS011;34313;50.780;6.084;2023-09-12T03:51:41;15.80;;;12.47;;
9188;SDS011;34313;50.780;6.084;2023-09-12T03:54:06;19.00;;;13.37;;
9188;SDS011;34313;50.780;6.084;2023-09-12T03:56:31;15.47;;;12.77;;
9188;SDS011;34313;50.780;6.084;2023-09-12T03:58:56;26.80;;;16.93;;
9188;SDS011;34313;50.780;6.084;2023-09-12T04:01:23;20.60;;;13.63;;
9188;SDS011;34313;50.780;6.084;2023-09-12T04:03:48;16.10;;;13.07;;
9188;SDS011;34313;50.780;6.084;2023-09-12T04:06:14;14.70;;;11.57;;
9188;SDS011;34313;50.780;6.084;2023-09-12T04:08:39;17.13;;;11.80;;
9188;SDS011;34313;50.780;6.084;2023-09-12T04:11:04;17.27;;;13.67;;
9188;SDS011;34313;50.780;6.084;2023-09-12T04:13:30;22.07;;;13.10;;
9188;SDS011;34313;50.780;6.084;2023-09-12T04:15:55;20.03;;;14.63;;
9188;SDS011;34313;50.780;6.084;2023-09-12T04:18:21;23.83;;;15.30;;
9188;SDS011;34313;50.780;6.084;2023-09-12T04:20:46;20.03;;;13.93;;
9188;SDS011;34313;50.780;6.084;2023-09-12T04:23:11;24.10;;;15.43;;
9188;SDS011;34313;50.780;6.084;2023-09-12T04:25:36;21.00;;;14.03;;
9188;SDS011;34313;50.780;6.084;2023-09-12T04:28:02;22.87;;;14.57;;
9188;SDS011;34313;50.780;6.084;2023-09-12T04:30:27;20.03;;;15.13;;
9188;SDS011;34313;50.780;6.084;2023-09-12T04:32:53;20.33;;;15.20;;
9188;SDS011;34313;50.780;6.084;2023-09-12T04:35:18;18.97;;;13.20;;
9188;SDS011;34313;50.780;6.084;2023-09-12T04:37:45;14.47;;;12.80;;
9188;SDS011;34313;50.780;6.084;2023-09-12T04:40:12;16.33;;;13.33;;
9188;SDS011;34313;50.780;6.084;2023-09-12T04:42:37;18.83;;;14.57;;
9188;SDS011;34313;50.780;6.084;2023-09-12T04:45:03;21.03;;;13.70;;
9188;SDS011;34313;50.780;6.084;2023-09-12T04:47:29;20.20;;;13.77;;
9188;SDS011;34313;50.780;6.084;2023-09-12T04:49:54;18.40;;;13.93;;
9188;SDS011;34313;50.780;6.084;2023-09-12T04:52:19;22.70;;;15.57;;
9188;SDS011;34313;50.780;6.084;2023-09-12T04:54:44;22.97;;;16.90;;
9188;SDS011;34313;50.780;6.084;2023-09-12T04:57:10;22.03;;;15.30;;
9188;SDS011;34313;50.780;6.084;2023-09-12T04:59:35;23.00;;;18.40;;
9188;SDS011;34313;50.780;6.084;2023-09-12T05:02:00;27.77;;;20.37;;
9188;SDS011;34313;50.780;6.084;2023-09-12T05:04:26;35.27;;;22.67;;
9188;SDS011;34313;50.780;6.084;2023-09-12T05:06:51;32.10;;;22.50;;
9188;SDS011;34313;50.780;6.084;2023-09-12T05:09:16;42.10;;;23.10;;
9188;SDS011;34313;50.780;6.084;2023-09-12T05:11:41;30.70;;;23.30;;
9188;SDS011;34313;50.780;6.084;2023-09-12T05:14:07;39.40;;;24.50;;
9188;SDS011;34313;50.780;6.084;2023-09-12T05:16:32;36.70;;;26.10;;
9188;SDS011;34313;50.780;6.084;2023-09-12T05:18:58;37.83;;;26.00;;
9188;SDS011;34313;50.780;6.084;2023-09-12T05:21:23;36.00;;;25.80;;
9188;SDS011;34313;50.780;6.084;2023-09-12T05:23:48;30.40;;;23.13;;
9188;SDS011;34313;50.780;6.084;2023-09-12T05:26:13;31.30;;;23.93;;
9188;SDS011;34313;50.780;6.084;2023-09-12T05:28:39;30.07;;;23.00;;
9188;SDS011;34313;50.780;6.084;2023-09-12T05:31:04;34.50;;;24.60;;
9188;SDS011;34313;50.780;6.084;2023-09-12T05:33:29;30.63;;;22.80;;
9188;SDS011;34313;50.780;6.084;2023-09-12T05:35:55;30.23;;;23.40;;
9188;SDS011;34313;50.780;6.084;2023-09-12T05:38:20;31.70;;;22.90;;
9188;SDS011;34313;50.780;6.084;2023-09-12T05:40:46;31.63;;;22.97;;
9188;SDS011;34313;50.780;6.084;2023-09-12T05:43:11;31.00;;;21.73;;
9188;SDS011;34313;50.780;6.084;2023-09-12T05:45:36;29.23;;;20.87;;
9188;SDS011;34313;50.780;6.084;2023-09-12T05:48:02;22.70;;;17.43;;
9188;SDS011;34313;50.780;6.084;2023-09-12T05:50:28;23.40;;;17.70;;
9188;SDS011;34313;50.780;6.084;2023-09-12T05:52:53;20.83;;;17.83;;
9188;SDS011;34313;50.780;6.084;2023-09-12T05:55:19;22.50;;;16.67;;
9188;SDS011;34313;50.780;6.084;2023-09-12T05:57:44;21.77;;;16.10;;
9188;SDS011;34313;50.780;6.084;2023-09-12T06:00:09;24.13;;;18.37;;
9188;SDS011;34313;50.780;6.084;2023-09-12T06:02:37;22.73;;;17.40;;
9188;SDS011;34313;50.780;6.084;2023-09-12T06:05:03;27.90;;;21.13;;
9188;SDS011;34313;50.780;6.084;2023-09-12T06:07:29;26.90;;;21.13;;
9188;SDS011;34313;50.780;6.084;2023-09-12T06:09:55;24.70;;;20.47;;
9188;SDS011;34313;50.780;6.084;2023-09-12T06:12:20;26.17;;;21.20;;
9188;SDS011;34313;50.780;6.084;2023-09-12T06:14:46;26.23;;;19.27;;
9188;SDS011;34313;50.780;6.084;2023-09-12T06:17:11;30.20;;;20.87;;
9188;SDS011;34313;50.780;6.084;2023-09-12T06:19:36;28.70;;;22.50;;
9188;SDS011;34313;50.780;6.084;2023-09-12T06:22:02;30.00;;;22.70;;
9188;SDS011;34313;50.780;6.084;2023-09-12T06:24:27;27.60;;;20.00;;
9188;SDS011;34313;50.780;6.084;2023-09-12T06:26:52;30.13;;;20.93;;
9188;SDS011;34313;50.780;6.084;2023-09-12T06:29:18;34.30;;;21.50;;
9188;SDS011;34313;50.780;6.084;2023-09-12T06:31:43;34.23;;;22.60;;
9188;SDS011;34313;50.780;6.084;2023-09-12T06:34:09;25.43;;;20.20;;
9188;SDS011;34313;50.780;6.084;2023-09-12T06:36:35;31.10;;;21.60;;
9188;SDS011;34313;50.780;6.084;2023-09-12T06:39:00;35.10;;;23.00;;
9188;SDS011;34313;50.780;6.084;2023-09-12T06:41:26;36.43;;;22.03;;
9188;SDS011;34313;50.780;6.084;2023-09-12T06:43:52;30.70;;;20.97;;
9188;SDS011;34313;50.780;6.084;2023-09-12T06:46:18;27.90;;;19.90;;
9188;SDS011;34313;50.780;6.084;2023-09-12T06:48:44;30.70;;;22.57;;
9188;SDS011;34313;50.780;6.084;2023-09-12T06:51:14;31.60;;;22.20;;
9188;SDS011;34313;50.780;6.084;2023-09-12T06:53:39;32.57;;;22.23;;
9188;SDS011;34313;50.780;6.084;2023-09-12T06:56:05;35.67;;;23.90;;
9188;SDS011;34313;50.780;6.084;2023-09-12T06:58:30;33.30;;;21.63;;
9188;SDS011;34313;50.780;6.084;2023-09-12T07:00:56;28.00;;;20.40;;
9188;SDS011;34313;50.780;6.084;2023-09-12T07:03:27;34.80;;;22.60;;
9188;SDS011;34313;50.780;6.084;2023-09-12T07:05:52;35.13;;;24.17;;
9188;SDS011;34313;50.780;6.084;2023-09-12T07:08:19;24.37;;;18.83;;
9188;SDS011;34313;50.780;6.084;2023-09-12T07:10:44;34.00;;;22.87;;
9188;SDS011;34313;50.780;6.084;2023-09-12T07:13:10;32.90;;;19.53;;
9188;SDS011;34313;50.780;6.084;2023-09-12T07:15:36;33.63;;;18.33;;
9188;SDS011;34313;50.780;6.084;2023-09-12T07:18:01;22.97;;;18.40;;
9188;SDS011;34313;50.780;6.084;2023-09-12T07:20:27;30.47;;;20.57;;
9188;SDS011;34313;50.780;6.084;2023-09-12T07:22:52;30.43;;;19.47;;
9188;SDS011;34313;50.780;6.084;2023-09-12T07:25:18;27.63;;;19.07;;
9188;SDS011;34313;50.780;6.084;2023-09-12T07:27:45;27.80;;;17.30;;
9188;SDS011;34313;50.780;6.084;2023-09-12T07:30:11;23.10;;;16.83;;
9188;SDS011;34313;50.780;6.084;2023-09-12T07:32:36;31.00;;;19.77;;
9188;SDS011;34313;50.780;6.084;2023-09-12T07:35:01;26.33;;;19.73;;
9188;SDS011;34313;50.780;6.084;2023-09-12T07:37:27;24.80;;;18.57;;
9188;SDS011;34313;50.780;6.084;2023-09-12T07:39:52;25.13;;;16.47;;
9188;SDS011;34313;50.780;6.084;2023-09-12T07:42:21;21.27;;;16.90;;
9188;SDS011;34313;50.780;6.084;2023-09-12T07:44:47;24.43;;;16.83;;
9188;SDS011;34313;50.780;6.084;2023-09-12T07:47:12;20.37;;;15.93;;
9188;SDS011;34313;50.780;6.084;2023-09-12T07:49:39;20.67;;;16.20;;
9188;SDS011;34313;50.780;6.084;2023-09-12T07:52:04;23.10;;;16.00;;
9188;SDS011;34313;50.780;6.084;2023-09-12T07:54:30;15.93;;;14.07;;
9188;SDS011;34313;50.780;6.084;2023-09-12T07:56:55;17.87;;;14.33;;
9188;SDS011;34313;50.780;6.084;2023-09-12T07:59:21;18.45;;;14.15;;
9188;SDS011;34313;50.780;6.084;2023-09-12T08:01:47;14.40;;;10.45;;
9188;SDS011;34313;50.780;6.084;2023-09-12T08:04:12;18.45;;;15.50;;
9188;SDS011;34313;50.780;6.084;2023-09-12T08:06:39;17.63;;;12.60;;
9188;SDS011;34313;50.780;6.084;2023-09-12T08:09:05;23.10;;;16.63;;
9188;SDS011;34313;50.780;6.084;2023-09-12T08:11:31;29.00;;;18.30;;
9188;SDS011;34313;50.780;6.084;2023-09-12T08:13:56;24.60;;;17.07;;
9188;SDS011;34313;50.780;6.084;2023-09-12T08:16:21;16.30;;;14.60;;
9188;SDS011;34313;50.780;6.084;2023-09-12T08:18:47;19.53;;;15.40;;
9188;SDS011;34313;50.780;6.084;2023-09-12T08:21:13;20.63;;;16.23;;
9188;SDS011;34313;50.780;6.084;2023-09-12T08:23:38;18.47;;;16.47;;
9188;SDS011;34313;50.780;6.084;2023-09-12T08:26:03;17.57;;;14.90;;
9188;SDS011;34313;50.780;6.084;2023-09-12T08:28:28;17.70;;;14.33;;
9188;SDS011;34313;50.780;6.084;2023-09-12T08:30:54;17.23;;;14.27;;
9188;SDS011;34313;50.780;6.084;2023-09-12T08:33:19;15.57;;;13.37;;
9188;SDS011;34313;50.780;6.084;2023-09-12T08:35:44;15.15;;;13.13;;
9188;SDS011;34313;50.780;6.084;2023-09-12T08:38:10;18.75;;;14.45;;
9188;SDS011;34313;50.780;6.084;2023-09-12T08:40:35;14.63;;;13.13;;
9188;SDS011;34313;50.780;6.084;2023-09-12T08:43:01;13.97;;;12.50;;
9188;SDS011;34313;50.780;6.084;2023-09-12T08:45:28;15.63;;;13.18;;
9188;SDS011;34313;50.780;6.084;2023-09-12T08:47:54;19.00;;;15.15;;
9188;SDS011;34313;50.780;6.084;2023-09-12T08:50:22;14.02;;;12.00;;
9188;SDS011;34313;50.780;6.084;2023-09-12T08:52:48;19.20;;;13.27;;
9188;SDS011;34313;50.780;6.084;2023-09-12T08:55:14;15.30;;;13.70;;
9188;SDS011;34313;50.780;6.084;2023-09-12T08:57:42;18.03;;;13.50;;
9188;SDS011;34313;50.780;6.084;2023-09-12T09:00:08;16.27;;;13.57;;
9188;SDS011;34313;50.780;6.084;2023-09-12T09:02:42;17.43;;;15.27;;
9188;SDS011;34313;50.780;6.084;2023-09-12T09:05:09;16.90;;;13.20;;
9188;SDS011;34313;50.780;6.084;2023-09-12T09:07:36;16.77;;;12.50;;
9188;SDS011;34313;50.780;6.084;2023-09-12T09:10:03;21.60;;;11.90;;
9188;SDS011;34313;50.780;6.084;2023-09-12T09:12:30;11.97;;;10.73;;
9188;SDS011;34313;50.780;6.084;2023-09-12T09:14:56;11.53;;;10.23;;
9188;SDS011;34313;50.780;6.084;2023-09-12T09:17:21;14.27;;;11.60;;
9188;SDS011;34313;50.780;6.084;2023-09-12T09:19:48;13.97;;;11.43;;
9188;SDS011;34313;50.780;6.084;2023-09-12T09:22:13;12.63;;;9.43;;
9188;SDS011;34313;50.780;6.084;2023-09-12T09:24:39;10.53;;;8.93;;
9188;SDS011;34313;50.780;6.084;2023-09-12T09:27:04;11.20;;;8.60;;
9188;SDS011;34313;50.780;6.084;2023-09-12T09:29:29;9.43;;;8.43;;
9188;SDS011;34313;50.780;6.084;2023-09-12T09:31:57;10.40;;;8.20;;
9188;SDS011;34313;50.780;6.084;2023-09-12T09:34:24;10.00;;;7.70;;
9188;SDS011;34313;50.780;6.084;2023-09-12T09:36:53;11.93;;;9.20;;
9188;SDS011;34313;50.780;6.084;2023-09-12T09:39:20;9.67;;;7.93;;
9188;SDS011;34313;50.780;6.084;2023-09-12T09:41:48;11.00;;;8.80;;
9188;SDS011;34313;50.780;6.084;2023-09-12T09:44:21;12.53;;;11.10;;
9188;SDS011;34313;50.780;6.084;2023-09-12T09:46:52;13.50;;;11.67;;
9188;SDS011;34313;50.780;6.084;2023-09-12T09:49:25;11.93;;;8.93;;
9188;SDS011;34313;50.780;6.084;2023-09-12T09:51:50;10.70;;;9.13;;
9188;SDS011;34313;50.780;6.084;2023-09-12T09:54:19;10.13;;;8.83;;
9188;SDS011;34313;50.780;6.084;2023-09-12T09:56:49;9.20;;;8.30;;
9188;SDS011;34313;50.780;6.084;2023-09-12T09:59:18;9.60;;;8.60;;
9188;SDS011;34313;50.780;6.084;2023-09-12T10:01:46;11.33;;;9.70;;
9188;SDS011;34313;50.780;6.084;2023-09-12T10:04:13;10.53;;;9.33;;
9188;SDS011;34313;50.780;6.084;2023-09-12T10:06:39;10.93;;;9.83;;
9188;SDS011;34313;50.780;6.084;2023-09-12T10:09:09;12.85;;;10.70;;
9188;SDS011;34313;50.780;6.084;2023-09-12T10:11:37;11.10;;;9.17;;
9188;SDS011;34313;50.780;6.084;2023-09-12T10:14:04;8.80;;;7.90;;
9188;SDS011;34313;50.780;6.084;2023-09-12T10:16:32;8.35;;;7.25;;
9188;SDS011;34313;50.780;6.084;2023-09-12T10:19:32;7.87;;;7.03;;
9188;SDS011;34313;50.780;6.084;2023-09-12T10:21:57;10.15;;;9.15;;
9188;SDS011;34313;50.780;6.084;2023-09-12T10:24:31;9.98;;;8.63;;
9188;SDS011;34313;50.780;6.084;2023-09-12T10:26:59;14.40;;;9.43;;
9188;SDS011;34313;50.780;6.084;2023-09-12T10:29:26;12.50;;;9.93;;
9188;SDS011;34313;50.780;6.084;2023-09-12T10:31:52;10.77;;;8.47;;
9188;SDS011;34313;50.780;6.084;2023-09-12T10:34:17;11.70;;;10.37;;
9188;SDS011;34313;50.780;6.084;2023-09-12T10:36:45;24.70;;;10.63;;
9188;SDS011;34313;50.780;6.084;2023-09-12T10:39:12;10.33;;;9.00;;
9188;SDS011;34313;50.780;6.084;2023-09-12T10:41:39;10.80;;;8.50;;
9188;SDS011;34313;50.780;6.084;2023-09-12T10:44:14;10.17;;;8.83;;
9188;SDS011;34313;50.780;6.084;2023-09-12T10:46:41;12.27;;;11.07;;
9188;SDS011;34313;50.780;6.084;2023-09-12T10:49:08;14.50;;;11.83;;
9188;SDS011;34313;50.780;6.084;2023-09-12T10:51:45;11.30;;;9.57;;
9188;SDS011;34313;50.780;6.084;2023-09-12T10:54:13;16.37;;;14.63;;
9188;SDS011;34313;50.780;6.084;2023-09-12T10:57:04;12.97;;;11.07;;
9188;SDS011;34313;50.780;6.084;2023-09-12T10:59:36;12.90;;;11.60;;
9188;SDS011;34313;50.780;6.084;2023-09-12T11:04:55;12.00;;;10.10;;
9188;SDS011;34313;50.780;6.084;2023-09-12T11:12:51;11.70;;;10.03;;
9188;SDS011;34313;50.780;6.084;2023-09-12T11:15:18;13.37;;;8.57;;
9188;SDS011;34313;50.780;6.084;2023-09-12T11:17:48;9.93;;;7.70;;
9188;SDS011;34313;50.780;6.084;2023-09-12T11:20:24;9.83;;;8.83;;
9188;SDS011;34313;50.780;6.084;2023-09-12T11:22:49;7.90;;;7.10;;
9188;SDS011;34313;50.780;6.084;2023-09-12T11:25:22;10.23;;;7.50;;
9188;SDS011;34313;50.780;6.084;2023-09-12T11:30:22;10.10;;;8.53;;
9188;SDS011;34313;50.780;6.084;2023-09-12T11:32:50;8.20;;;7.33;;
9188;SDS011;34313;50.780;6.084;2023-09-12T11:35:16;12.13;;;6.83;;
9188;SDS011;34313;50.780;6.084;2023-09-12T11:37:48;10.50;;;6.60;;
9188;SDS011;34313;50.780;6.084;2023-09-12T11:42:42;12.37;;;9.67;;
9188;SDS011;34313;50.780;6.084;2023-09-12T11:45:11;8.20;;;7.40;;
9188;SDS011;34313;50.780;6.084;2023-09-12T11:47:40;8.80;;;7.90;;
9188;SDS011;34313;50.780;6.084;2023-09-12T11:50:06;15.13;;;13.10;;
9188;SDS011;34313;50.780;6.084;2023-09-12T11:52:35;22.70;;;19.43;;
9188;SDS011;34313;50.780;6.084;2023-09-12T11:55:02;13.70;;;10.70;;
9188;SDS011;34313;50.780;6.084;2023-09-12T11:57:28;14.70;;;10.30;;
9188;SDS011;34313;50.780;6.084;2023-09-12T11:59:54;13.10;;;9.57;;
9188;SDS011;34313;50.780;6.084;2023-09-12T12:02:21;9.77;;;7.60;;
9188;SDS011;34313;50.780;6.084;2023-09-12T12:04:46;10.27;;;9.00;;
9188;SDS011;34313;50.780;6.084;2023-09-12T12:07:12;10.17;;;8.70;;
9188;SDS011;34313;50.780;6.084;2023-09-12T12:09:38;9.20;;;7.70;;
9188;SDS011;34313;50.780;6.084;2023-09-12T12:12:04;8.90;;;7.60;;
9188;SDS011;34313;50.780;6.084;2023-09-12T12:14:38;9.37;;;6.27;;
9188;SDS011;34313;50.780;6.084;2023-09-12T12:17:07;6.17;;;5.57;;
9188;SDS011;34313;50.780;6.084;2023-09-12T12:19:34;9.67;;;7.10;;
9188;SDS011;34313;50.780;6.084;2023-09-12T12:22:01;8.67;;;6.73;;
9188;SDS011;34313;50.780;6.084;2023-09-12T12:24:35;13.83;;;9.90;;
9188;SDS011;34313;50.780;6.084;2023-09-12T12:27:02;7.67;;;6.50;;
9188;SDS011;34313;50.780;6.084;2023-09-12T12:29:28;7.60;;;6.80;;
9188;SDS011;34313;50.780;6.084;2023-09-12T12:31:59;9.13;;;8.00;;
9188;SDS011;34313;50.780;6.084;2023-09-12T12:34:26;7.87;;;6.40;;
9188;SDS011;34313;50.780;6.084;2023-09-12T12:36:51;16.83;;;8.60;;
9188;SDS011;34313;50.780;6.084;2023-09-12T12:39:18;8.37;;;7.30;;
9188;SDS011;34313;50.780;6.084;2023-09-12T12:41:43;18.50;;;10.50;;
9188;SDS011;34313;50.780;6.084;2023-09-12T12:44:09;8.43;;;7.37;;
9188;SDS011;34313;50.780;6.084;2023-09-12T12:46:47;8.73;;;7.57;;
9188;SDS011;34313;50.780;6.084;2023-09-12T12:49:21;8.40;;;7.10;;
9188;SDS011;34313;50.780;6.084;2023-09-12T12:51:48;9.50;;;6.90;;
9188;SDS011;34313;50.780;6.084;2023-09-12T12:54:13;10.20;;;7.83;;
9188;SDS011;34313;50.780;6.084;2023-09-12T12:56:39;9.27;;;8.27;;
9188;SDS011;34313;50.780;6.084;2023-09-12T12:59:06;11.43;;;8.60;;
9188;SDS011;34313;50.780;6.084;2023-09-12T13:01:34;9.40;;;8.40;;
9188;SDS011;34313;50.780;6.084;2023-09-12T13:04:00;9.47;;;7.53;;
9188;SDS011;34313;50.780;6.084;2023-09-12T13:06:25;9.90;;;8.90;;
9188;SDS011;34313;50.780;6.084;2023-09-12T13:08:52;14.40;;;8.40;;
9188;SDS011;34313;50.780;6.084;2023-09-12T13:11:18;10.50;;;6.73;;
9188;SDS011;34313;50.780;6.084;2023-09-12T13:13:44;8.67;;;7.77;;
9188;SDS011;34313;50.780;6.084;2023-09-12T13:16:12;8.70;;;7.17;;
9188;SDS011;34313;50.780;6.084;2023-09-12T13:18:38;9.63;;;6.97;;
9188;SDS011;34313;50.780;6.084;2023-09-12T13:21:04;10.83;;;8.07;;
9188;SDS011;34313;50.780;6.084;2023-09-12T13:23:30;8.37;;;7.57;;
9188;SDS011;34313;50.780;6.084;2023-09-12T13:25:58;11.63;;;7.83;;
9188;SDS011;34313;50.780;6.084;2023-09-12T13:28:23;7.70;;;6.27;;
9188;SDS011;34313;50.780;6.084;2023-09-12T13:30:51;10.93;;;7.60;;
9188;SDS011;34313;50.780;6.084;2023-09-12T13:33:16;8.80;;;7.30;;
9188;SDS011;34313;50.780;6.084;2023-09-12T13:35:42;10.17;;;7.70;;
9188;SDS011;34313;50.780;6.084;2023-09-12T13:38:07;7.37;;;6.63;;
9188;SDS011;34313;50.780;6.084;2023-09-12T13:40:38;10.83;;;7.87;;
9188;SDS011;34313;50.780;6.084;2023-09-12T13:43:05;10.63;;;9.40;;
9188;SDS011;34313;50.780;6.084;2023-09-12T13:45:31;10.57;;;7.97;;
9188;SDS011;34313;50.780;6.084;2023-09-12T13:47:57;8.63;;;6.40;;
9188;SDS011;34313;50.780;6.084;2023-09-12T13:50:23;8.30;;;6.93;;
9188;SDS011;34313;50.780;6.084;2023-09-12T13:52:49;11.57;;;7.53;;
9188;SDS011;34313;50.780;6.084;2023-09-12T13:55:14;11.53;;;8.47;;
9188;SDS011;34313;50.780;6.084;2023-09-12T13:57:41;8.23;;;7.43;;
9188;SDS011;34313;50.780;6.084;2023-09-12T14:00:06;8.00;;;7.00;;
9188;SDS011;34313;50.780;6.084;2023-09-12T14:02:32;10.43;;;7.97;;
9188;SDS011;34313;50.780;6.084;2023-09-12T14:04:58;10.00;;;7.67;;
9188;SDS011;34313;50.780;6.084;2023-09-12T14:07:23;6.77;;;6.07;;
9188;SDS011;34313;50.780;6.084;2023-09-12T14:09:48;9.83;;;7.07;;
9188;SDS011;34313;50.780;6.084;2023-09-12T14:12:14;9.70;;;7.77;;
9188;SDS011;34313;50.780;6.084;2023-09-12T14:14:40;10.47;;;6.40;;
9188;SDS011;34313;50.780;6.084;2023-09-12T14:17:06;8.33;;;7.50;;
9188;SDS011;34313;50.780;6.084;2023-09-12T14:19:31;9.97;;;6.87;;
9188;SDS011;34313;50.780;6.084;2023-09-12T14:21:56;8.13;;;7.33;;
9188;SDS011;34313;50.780;6.084;2023-09-12T14:24:22;11.13;;;7.00;;
9188;SDS011;34313;50.780;6.084;2023-09-12T14:26:48;8.50;;;7.47;;
9188;SDS011;34313;50.780;6.084;2023-09-12T14:29:14;8.50;;;7.60;;
9188;SDS011;34313;50.780;6.084;2023-09-12T14:31:39;11.60;;;7.90;;
9188;SDS011;34313;50.780;6.084;2023-09-12T14:34:05;11.03;;;7.30;;
9188;SDS011;34313;50.780;6.084;2023-09-12T14:36:32;8.57;;;7.37;;
9188;SDS011;34313;50.780;6.084;2023-09-12T14:38:57;10.83;;;6.80;;
9188;SDS011;34313;50.780;6.084;2023-09-12T14:41:23;6.73;;;5.97;;
9188;SDS011;34313;50.780;6.084;2023-09-12T14:43:48;8.17;;;6.67;;
9188;SDS011;34313;50.780;6.084;2023-09-12T14:46:14;9.83;;;6.47;;
9188;SDS011;34313;50.780;6.084;2023-09-12T14:48:39;6.93;;;6.10;;
9188;SDS011;34313;50.780;6.084;2023-09-12T14:51:05;7.80;;;5.80;;
9188;SDS011;34313;50.780;6.084;2023-09-12T14:53:30;7.33;;;6.20;;
9188;SDS011;34313;50.780;6.084;2023-09-12T14:55:57;7.37;;;6.67;;
9188;SDS011;34313;50.780;6.084;2023-09-12T14:58:22;9.03;;;6.43;;